createdAt,value
2023-04-18T00:01:48.942Z,95.51
2023-04-18T00:06:51.885Z,95.74
2023-04-18T00:11:54.606Z,96.85
2023-04-18T00:16:58.466Z,97.33
2023-04-18T00:22:01.436Z,98.22
2023-04-18T00:27:03.987Z,98.39
2023-04-18T00:32:07.955Z,99.41
2023-04-18T00:37:10.462Z,98.82
2023-04-18T00:42:12.980Z,98.70
2023-04-18T00:47:18.060Z,99.11
2023-04-18T00:52:21.478Z,99.25
2023-04-18T00:57:24.429Z,100.00
2023-04-18T01:02:31.323Z,100.00
2023-04-18T01:07:37.201Z,99.90
2023-04-18T01:12:40.170Z,100.00
2023-04-18T01:17:44.045Z,100.00
2023-04-18T01:22:46.629Z,100.00
2023-04-18T01:27:51.558Z,100.00
2023-04-18T01:32:54.276Z,99.87
2023-04-18T01:37:57.428Z,99.74
2023-04-18T01:43:01.352Z,99.61
2023-04-18T01:48:03.915Z,100.00
2023-04-18T01:53:06.460Z,99.34
2023-04-18T01:58:10.343Z,99.80
2023-04-18T02:03:13.066Z,99.48
2023-04-18T02:08:15.901Z,99.94
2023-04-18T02:13:19.719Z,99.86
2023-04-18T02:18:24.674Z,99.80
2023-04-18T02:23:27.215Z,100.00
2023-04-18T02:28:31.037Z,100.00
2023-04-18T02:33:33.553Z,100.00
2023-04-18T02:38:36.033Z,100.00
2023-04-18T02:43:39.898Z,100.00
2023-04-18T02:48:42.376Z,100.00
2023-04-18T02:53:44.887Z,100.00
2023-04-18T02:58:48.867Z,99.61
2023-04-18T03:03:51.550Z,99.60
2023-04-18T03:08:54.181Z,98.82
2023-04-18T03:13:58.013Z,99.04
2023-04-18T03:19:01.481Z,99.00
2023-04-18T03:24:04.050Z,99.01
2023-04-18T03:29:07.848Z,98.76
2023-04-18T03:34:10.313Z,99.30
2023-04-18T03:39:12.805Z,99.35
2023-04-18T03:44:16.767Z,99.19
2023-04-18T03:49:19.380Z,99.16
2023-04-18T03:54:21.849Z,99.11
2023-04-18T03:59:25.698Z,99.58
2023-04-18T04:04:28.271Z,99.26
2023-04-18T04:09:30.817Z,99.38
2023-04-18T04:14:34.696Z,99.88
2023-04-18T04:19:37.214Z,100.00
2023-04-18T04:24:40.383Z,100.00
2023-04-18T04:29:44.233Z,99.80
2023-04-18T04:34:47.264Z,99.64
2023-04-18T04:39:49.728Z,99.88
2023-04-18T04:44:54.200Z,99.90
2023-04-18T04:49:56.980Z,99.94
2023-04-18T04:54:59.521Z,100.00
2023-04-18T05:00:05.982Z,100.00
2023-04-18T05:05:09.288Z,100.00
2023-04-18T05:10:11.920Z,100.00
2023-04-18T05:15:16.370Z,100.00
2023-04-18T05:20:18.886Z,100.00
2023-04-18T05:25:21.446Z,100.00
2023-04-18T05:30:25.284Z,100.00
2023-04-18T05:35:27.816Z,100.00
2023-04-18T05:40:30.847Z,100.00
2023-04-18T05:45:34.798Z,100.00
2023-04-18T05:50:37.437Z,100.00
2023-04-18T05:55:41.159Z,100.00
2023-04-18T06:00:45.296Z,100.00
2023-04-18T06:05:47.983Z,100.00
2023-04-18T06:10:50.656Z,100.00
2023-04-18T06:15:54.587Z,100.00
2023-04-18T06:20:57.105Z,100.00
2023-04-18T06:25:59.799Z,100.00
2023-04-18T06:31:03.703Z,100.00
2023-04-18T06:36:07.236Z,100.00
2023-04-18T06:41:09.755Z,100.00
2023-04-18T06:46:13.942Z,99.92
2023-04-18T06:51:16.541Z,99.84
2023-04-18T06:56:19.288Z,99.78
2023-04-18T07:01:23.198Z,99.65
2023-04-18T07:06:26.251Z,99.58
2023-04-18T07:11:29.180Z,99.26
2023-04-18T07:16:32.973Z,99.10
2023-04-18T07:21:35.502Z,99.18
2023-04-18T07:26:38.123Z,98.90
2023-04-18T07:31:42.077Z,98.51
2023-04-18T07:36:44.662Z,98.24
2023-04-18T07:41:47.183Z,97.90
2023-04-18T07:46:51.021Z,97.43
2023-04-18T07:51:53.551Z,97.19
2023-04-18T07:56:56.592Z,97.16
2023-04-18T08:02:00.563Z,96.53
2023-04-18T08:07:03.109Z,96.61
2023-04-18T08:12:06.237Z,96.18
2023-04-18T08:17:10.170Z,96.08
2023-04-18T08:22:12.809Z,96.30
2023-04-18T08:27:15.358Z,96.27
2023-04-18T08:32:19.286Z,95.86
2023-04-18T08:37:21.821Z,95.74
2023-04-18T08:42:24.873Z,95.23
2023-04-18T08:47:29.938Z,95.39
2023-04-18T08:52:34.090Z,94.85
2023-04-18T08:57:37.165Z,94.43
2023-04-18T09:02:43.642Z,94.51
2023-04-18T09:07:47.169Z,94.20
2023-04-18T09:12:50.848Z,94.81
2023-04-18T09:17:57.797Z,94.44
2023-04-18T09:23:00.643Z,94.95
2023-04-18T09:28:04.961Z,94.53
2023-04-18T09:33:10.365Z,94.17
2023-04-18T09:38:12.930Z,94.04
2023-04-18T09:43:20.422Z,94.08
2023-04-18T09:48:24.312Z,94.08
2023-04-18T09:53:27.930Z,92.84
2023-04-18T09:58:33.928Z,92.42
2023-04-18T10:03:45.414Z,91.99
2023-04-18T10:08:49.852Z,91.63
2023-04-18T10:13:56.928Z,91.49
2023-04-18T10:19:20.523Z,90.55
2023-04-18T10:24:49.404Z,89.70
2023-04-18T10:29:53.092Z,89.43
2023-04-18T10:34:57.089Z,89.69
2023-04-18T10:40:05.838Z,89.15
2023-04-18T10:45:18.662Z,87.54
2023-04-18T10:50:23.036Z,87.25
2023-04-18T10:55:29.588Z,86.17
2023-04-18T11:00:32.797Z,84.88
2023-04-18T11:05:36.668Z,85.41
2023-04-18T11:10:39.830Z,84.18
2023-04-18T11:15:42.337Z,82.83
2023-04-18T11:20:50.036Z,80.56
2023-04-18T11:25:53.707Z,80.89
2023-04-18T11:30:59.464Z,81.24
2023-04-18T11:36:03.564Z,79.93
2023-04-18T11:41:06.234Z,79.38
2023-04-18T11:46:08.895Z,77.12
2023-04-18T11:51:35.457Z,77.17
2023-04-18T11:56:38.054Z,76.73
2023-04-18T12:01:40.727Z,77.72
2023-04-18T12:06:48.013Z,78.10
2023-04-18T12:12:01.527Z,76.07
2023-04-18T12:17:04.660Z,76.79
2023-04-18T12:22:09.669Z,75.50
2023-04-18T12:27:12.540Z,76.82
2023-04-18T12:32:16.893Z,76.60
2023-04-18T12:37:25.463Z,76.54
2023-04-18T12:42:28.054Z,75.86
2023-04-18T12:47:31.535Z,73.86
2023-04-18T12:52:38.200Z,74.45
2023-04-18T12:57:42.492Z,74.69
2023-04-18T13:02:46.026Z,72.92
2023-04-18T13:07:50.833Z,75.00
2023-04-18T13:12:53.946Z,74.53
2023-04-18T13:17:57.228Z,74.41
2023-04-18T13:23:01.379Z,75.12
2023-04-18T13:28:03.888Z,75.09
2023-04-18T13:33:06.551Z,74.78
2023-04-18T13:38:11.097Z,75.73
2023-04-18T13:43:15.323Z,76.49
2023-04-18T13:48:17.965Z,76.84
2023-04-18T13:53:21.913Z,77.64
2023-04-18T13:58:24.428Z,77.24
2023-04-18T14:03:26.998Z,77.86
2023-04-18T14:08:31.047Z,78.15
2023-04-18T14:13:33.705Z,78.31
2023-04-18T14:18:36.644Z,78.89
2023-04-18T14:23:40.515Z,78.63
2023-04-18T14:28:43.037Z,78.66
2023-04-18T14:33:46.233Z,79.60
2023-04-18T14:38:50.221Z,78.78
2023-04-18T14:43:52.747Z,78.17
2023-04-18T14:48:55.229Z,77.70
2023-04-18T14:53:59.158Z,77.20
2023-04-18T14:59:02.636Z,76.71
2023-04-18T15:04:05.873Z,76.52
2023-04-18T15:09:09.799Z,77.20
2023-04-18T15:14:12.575Z,76.30
2023-04-18T15:19:15.316Z,76.87
2023-04-18T15:24:19.151Z,76.25
2023-04-18T15:29:21.689Z,75.83
2023-04-18T15:34:25.494Z,75.18
2023-04-18T15:39:29.359Z,76.15
2023-04-18T15:44:31.838Z,73.99
2023-04-18T15:49:34.383Z,71.98
2023-04-18T15:54:41.433Z,72.10
2023-04-18T15:59:43.998Z,72.02
2023-04-18T16:04:46.691Z,71.92
2023-04-18T16:09:50.648Z,71.33
2023-04-18T16:14:53.146Z,70.96
2023-04-18T16:19:55.658Z,68.94
2023-04-18T16:24:59.519Z,68.03
2023-04-18T16:30:02.145Z,66.93
2023-04-18T16:35:06.261Z,65.65
2023-04-18T16:40:10.735Z,64.47
2023-04-18T16:45:13.287Z,65.06
2023-04-18T16:50:16.009Z,64.26
2023-04-18T16:55:20.200Z,64.46
2023-04-18T17:00:22.800Z,63.50
2023-04-18T17:05:26.749Z,62.16
2023-04-18T17:10:31.358Z,62.49
2023-04-18T17:15:34.121Z,62.35
2023-04-18T17:20:37.328Z,63.00
2023-04-18T17:25:41.248Z,64.33
2023-04-18T17:30:44.083Z,64.93
2023-04-18T17:35:47.070Z,65.80
2023-04-18T17:40:58.760Z,65.44
2023-04-18T17:46:03.599Z,65.53
2023-04-18T17:51:06.296Z,65.79
2023-04-18T17:56:10.593Z,66.00
2023-04-18T18:01:16.671Z,67.24
2023-04-18T18:06:19.284Z,67.86
2023-04-18T18:11:23.702Z,67.89
2023-04-18T18:16:26.318Z,68.19
2023-04-18T18:21:29.314Z,68.51
2023-04-18T18:26:33.210Z,68.99
2023-04-18T18:31:35.992Z,69.74
2023-04-18T18:36:38.616Z,69.99
2023-04-18T18:41:42.638Z,70.09
2023-04-18T18:46:45.465Z,70.35
2023-04-18T18:51:48.079Z,70.89
2023-04-18T18:56:51.979Z,71.10
2023-04-18T19:01:54.594Z,71.36
2023-04-18T19:06:57.368Z,71.71
2023-04-18T19:12:01.421Z,71.88
2023-04-18T19:17:04.876Z,72.42
2023-04-18T19:22:07.512Z,72.79
2023-04-18T19:27:11.467Z,73.06
2023-04-18T19:32:14.229Z,73.24
2023-04-18T19:37:16.767Z,73.66
2023-04-18T19:42:20.862Z,73.99
2023-04-18T19:47:23.424Z,74.12
2023-04-18T19:52:26.028Z,74.46
2023-04-18T19:57:30.065Z,74.89
2023-04-18T20:02:33.105Z,75.15
2023-04-18T20:07:36.211Z,75.76
2023-04-18T20:12:40.213Z,76.16
2023-04-18T20:17:42.913Z,76.25
2023-04-18T20:22:47.324Z,76.41
2023-04-18T20:27:51.567Z,76.96
2023-04-18T20:32:54.337Z,77.24
2023-04-18T20:37:57.810Z,77.95
2023-04-18T20:43:02.961Z,78.13
2023-04-18T20:48:06.418Z,79.01
2023-04-18T20:53:08.931Z,79.22
2023-04-18T20:58:12.823Z,79.39
2023-04-18T21:03:15.791Z,79.75
2023-04-18T21:08:19.273Z,79.65
2023-04-18T21:13:23.194Z,79.70
2023-04-18T21:18:25.825Z,79.67
2023-04-18T21:23:28.355Z,79.50
2023-04-18T21:28:32.213Z,79.77
2023-04-18T21:33:34.803Z,79.77
2023-04-18T21:38:37.320Z,79.55
2023-04-18T21:43:41.758Z,79.37
2023-04-18T21:48:45.660Z,79.26
2023-04-18T21:53:48.223Z,79.15
2023-04-18T21:58:52.074Z,79.06
2023-04-18T22:03:54.794Z,79.18
2023-04-18T22:08:58.227Z,78.96
2023-04-18T22:14:02.214Z,79.06
2023-04-18T22:19:05.661Z,78.70
2023-04-18T22:24:09.677Z,78.77
2023-04-18T22:29:13.756Z,78.71
2023-04-18T22:34:16.525Z,78.46
2023-04-18T22:39:19.157Z,78.68
2023-04-18T22:44:23.036Z,78.85
2023-04-18T22:49:26.089Z,78.54
2023-04-18T22:54:28.570Z,77.88
2023-04-18T22:59:32.587Z,77.49
2023-04-18T23:04:35.275Z,77.44
2023-04-18T23:09:37.890Z,77.54
2023-04-18T23:14:42.514Z,77.62
2023-04-18T23:19:45.869Z,76.97
2023-04-18T23:24:48.366Z,77.53
2023-04-18T23:29:52.213Z,77.15
2023-04-18T23:34:54.769Z,77.27
2023-04-18T23:39:57.286Z,76.96
2023-04-18T23:45:01.156Z,76.68
2023-04-18T23:50:03.714Z,77.13
2023-04-18T23:55:07.078Z,77.35
